createdAt,value
2023-04-02T00:03:02.400Z,99622.66
2023-04-02T00:08:21.364Z,99638.50
2023-04-02T00:13:32.692Z,99644.66
2023-04-02T00:18:44.416Z,99649.59
2023-04-02T00:23:52.026Z,99665.47
2023-04-02T00:28:57.766Z,99670.13
2023-04-02T00:34:11.975Z,99675.66
2023-04-02T00:39:28.581Z,99687.81
2023-04-02T00:44:38.898Z,99700.13
2023-04-02T00:49:48.036Z,99695.03
2023-04-02T00:55:01.854Z,99706.63
2023-04-02T01:00:30.825Z,99719.97
2023-04-02T01:05:40.419Z,99725.66
2023-04-02T01:11:03.132Z,99739.84
2023-04-02T01:16:14.166Z,99748.47
2023-04-02T01:21:34.225Z,99755.81
2023-04-02T01:26:50.202Z,99763.38
2023-04-02T01:32:05.159Z,99772.91
2023-04-02T01:37:23.120Z,99785.53
2023-04-02T01:42:36.144Z,99801.03
2023-04-02T01:47:45.526Z,99817.66
2023-04-02T01:52:53.345Z,99820.81
2023-04-02T01:58:01.727Z,99823.38
2023-04-02T02:03:11.313Z,99831.88
2023-04-02T02:08:31.521Z,99845.44
2023-04-02T02:13:36.808Z,99850.75
2023-04-02T02:18:46.222Z,99863.13
2023-04-02T02:23:53.397Z,99862.31
2023-04-02T02:29:02.062Z,99879.03
2023-04-02T02:34:17.675Z,99889.88
2023-04-02T02:39:26.350Z,99901.81
2023-04-02T02:44:36.689Z,99910.53
2023-04-02T02:49:47.704Z,99913.78
2023-04-02T02:54:53.423Z,99925.00
2023-04-02T03:00:01.576Z,99925.53
2023-04-02T03:05:11.034Z,99930.81
2023-04-02T03:10:21.149Z,99936.78
2023-04-02T03:15:51.484Z,99966.13
2023-04-02T03:21:03.516Z,99970.38
2023-04-02T03:26:15.530Z,99975.50
2023-04-02T03:31:28.055Z,99987.75
2023-04-02T03:36:43.920Z,99995.41
2023-04-02T03:41:53.949Z,100008.72
2023-04-02T03:47:06.137Z,100021.69
2023-04-02T03:52:18.866Z,100029.59
2023-04-02T03:57:32.620Z,100038.91
2023-04-02T04:02:45.153Z,100052.94
2023-04-02T04:07:57.700Z,100069.28
2023-04-02T04:13:09.380Z,100084.25
2023-04-02T04:18:33.623Z,100097.38
2023-04-02T04:23:43.325Z,100118.81
2023-04-02T04:29:00.132Z,100126.00
2023-04-02T04:34:12.117Z,100147.63
2023-04-02T04:39:29.937Z,100146.31
2023-04-02T04:44:45.105Z,100165.00
2023-04-02T04:49:55.839Z,100182.09
2023-04-02T04:55:06.412Z,100200.63
2023-04-02T05:00:20.916Z,100206.66
2023-04-02T05:05:30.879Z,100218.53
2023-04-02T05:10:51.422Z,100227.16
2023-04-02T05:16:06.421Z,100251.41
2023-04-02T05:21:24.951Z,100261.03
2023-04-02T05:26:43.358Z,100273.53
2023-04-02T05:31:56.774Z,100288.78
2023-04-02T05:37:02.098Z,100285.00
2023-04-02T05:42:25.110Z,100303.13
2023-04-02T05:47:42.460Z,100314.91
2023-04-02T05:52:52.227Z,100327.13
2023-04-02T05:58:29.522Z,100336.56
2023-04-02T06:03:42.392Z,100356.47
2023-04-02T06:08:56.208Z,100352.56
2023-04-02T06:14:03.665Z,100367.31
2023-04-02T06:19:16.571Z,100368.97
2023-04-02T06:24:26.743Z,100380.16
2023-04-02T06:29:40.992Z,100395.91
2023-04-02T06:34:52.012Z,100401.53
2023-04-02T06:39:59.727Z,100418.03
2023-04-02T06:45:08.190Z,100438.50
2023-04-02T06:50:18.932Z,100437.66
2023-04-02T06:55:33.431Z,100449.13
2023-04-02T07:00:44.682Z,100465.69
2023-04-02T07:05:54.165Z,100475.97
2023-04-02T07:10:58.676Z,100483.84
2023-04-02T07:16:06.762Z,100495.22
2023-04-02T07:21:12.427Z,100498.94
2023-04-02T07:26:22.553Z,100507.66
2023-04-02T07:31:30.102Z,100504.13
2023-04-02T07:36:37.107Z,100519.25
2023-04-02T07:41:55.244Z,100540.91
2023-04-02T07:47:07.645Z,100545.44
2023-04-02T07:52:13.680Z,100554.81
2023-04-02T07:57:22.866Z,100566.00
2023-04-02T08:02:42.069Z,100565.00
2023-04-02T08:07:57.117Z,100573.28
2023-04-02T08:13:02.895Z,100583.03
2023-04-02T08:18:11.585Z,100608.47
2023-04-02T08:23:25.947Z,100618.88
2023-04-02T08:28:33.827Z,100613.75
2023-04-02T08:33:54.042Z,100621.44
2023-04-02T08:39:03.648Z,100642.56
2023-04-02T08:44:43.033Z,100649.16
2023-04-02T08:50:01.074Z,100652.69
2023-04-02T08:55:17.638Z,100661.63
2023-04-02T09:00:40.834Z,100655.50
2023-04-02T09:05:52.991Z,100669.16
2023-04-02T09:11:10.785Z,100675.53
2023-04-02T09:16:21.534Z,100682.38
2023-04-02T09:21:49.828Z,100693.25
2023-04-02T09:27:00.360Z,100701.66
2023-04-02T09:32:21.971Z,100710.84
2023-04-02T09:37:31.865Z,100716.16
2023-04-02T09:42:38.642Z,100720.16
2023-04-02T09:47:48.041Z,100732.69
2023-04-02T09:53:08.018Z,100737.69
2023-04-02T09:58:23.057Z,100750.31
2023-04-02T10:03:29.087Z,100755.16
2023-04-02T10:08:42.771Z,100770.53
2023-04-02T10:13:59.690Z,100765.75
2023-04-02T10:19:14.890Z,100776.41
2023-04-02T10:24:37.826Z,100786.53
2023-04-02T10:30:20.960Z,100786.44
2023-04-02T10:35:40.215Z,100797.75
2023-04-02T10:41:02.950Z,100809.56
2023-04-02T10:46:15.177Z,100814.19
2023-04-02T10:51:35.275Z,100820.16
2023-04-02T10:56:50.643Z,100824.97
2023-04-02T11:02:01.732Z,100830.31
2023-04-02T11:07:20.331Z,100835.72
2023-04-02T11:12:36.584Z,100832.44
2023-04-02T11:17:46.960Z,100848.59
2023-04-02T11:23:14.870Z,100854.72
2023-04-02T11:28:30.736Z,100854.38
2023-04-02T11:34:03.776Z,100861.84
2023-04-02T11:39:26.826Z,100870.38
2023-04-02T11:44:39.961Z,100874.63
2023-04-02T11:50:02.355Z,100873.81
2023-04-02T11:55:31.224Z,100880.47
2023-04-02T12:01:05.296Z,100892.81
2023-04-02T12:06:20.872Z,100891.09
2023-04-02T12:11:43.734Z,100899.63
2023-04-02T12:17:09.981Z,100902.88
2023-04-02T12:22:22.266Z,100915.13
2023-04-02T12:27:30.317Z,100912.66
2023-04-02T12:32:37.266Z,100918.00
2023-04-02T12:38:00.364Z,100926.97
2023-04-02T12:43:04.632Z,100929.06
2023-04-02T12:48:20.506Z,100934.19
2023-04-02T12:53:33.115Z,100937.63
2023-04-02T12:58:47.362Z,100932.97
2023-04-02T13:04:25.380Z,100935.69
2023-04-02T13:09:44.962Z,100938.22
2023-04-02T13:14:59.407Z,100938.97
2023-04-02T13:20:33.697Z,100948.09
2023-04-02T13:25:38.422Z,100955.38
2023-04-02T13:30:52.072Z,100959.97
2023-04-02T13:36:32.077Z,100964.13
2023-04-02T13:41:44.762Z,100975.03
2023-04-02T13:46:59.507Z,100970.84
2023-04-02T13:52:45.294Z,100980.25
2023-04-02T13:57:50.214Z,100986.00
2023-04-02T14:03:01.942Z,100977.72
2023-04-02T14:08:17.103Z,100987.47
2023-04-02T14:13:37.662Z,100988.28
2023-04-02T14:19:12.835Z,101004.16
2023-04-02T14:24:38.304Z,101003.09
2023-04-02T14:29:55.073Z,101011.78
2023-04-02T14:35:09.502Z,101004.09
2023-04-02T14:40:34.237Z,101020.91
2023-04-02T14:46:00.474Z,101034.03
2023-04-02T14:51:16.693Z,101026.81
2023-04-02T14:56:32.963Z,101026.38
2023-04-02T15:01:42.916Z,101027.44
2023-04-02T15:07:07.979Z,101039.31
2023-04-02T15:12:24.604Z,101031.28
2023-04-02T15:17:32.496Z,101037.25
2023-04-02T15:22:49.984Z,101045.72
2023-04-02T15:33:37.434Z,101060.72
2023-04-02T15:38:45.901Z,101072.53
2023-04-02T15:44:14.823Z,101083.84
2023-04-02T15:49:43.450Z,101070.47
2023-04-02T15:54:59.916Z,101080.41
2023-04-02T16:00:23.383Z,101084.03
2023-04-02T16:05:43.276Z,101083.34
2023-04-02T16:10:47.910Z,101096.88
2023-04-02T16:16:01.921Z,101102.72
2023-04-02T16:21:12.009Z,101094.25
2023-04-02T16:26:34.493Z,101110.09
2023-04-02T16:31:46.384Z,101114.09
2023-04-02T16:37:23.380Z,101117.75
2023-04-02T16:42:39.408Z,101131.78
2023-04-02T16:48:03.430Z,101136.16
2023-04-02T16:53:24.517Z,101156.72
2023-04-02T16:58:40.822Z,101156.44
2023-04-02T17:04:03.138Z,101163.13
2023-04-02T17:09:16.968Z,101153.47
2023-04-02T17:14:30.624Z,101163.41
2023-04-02T17:19:34.511Z,101164.03
2023-04-02T17:24:47.030Z,101185.19
2023-04-02T17:29:54.029Z,101181.09
2023-04-02T17:34:59.148Z,101184.00
2023-04-02T17:40:20.045Z,101193.41
2023-04-02T17:45:32.725Z,101188.94
2023-04-02T17:50:54.902Z,101197.66
2023-04-02T17:56:28.775Z,101209.53
2023-04-02T18:01:46.793Z,101210.19
2023-04-02T18:07:11.616Z,101218.28
2023-04-02T18:12:34.331Z,101224.06
2023-04-02T18:17:51.827Z,101238.09
2023-04-02T18:23:08.905Z,101239.75
2023-04-02T18:28:29.234Z,101248.44
2023-04-02T18:33:52.871Z,101254.81
2023-04-02T18:39:11.722Z,101260.13
2023-04-02T18:44:49.427Z,101269.66
2023-04-02T18:50:06.192Z,101272.53
2023-04-02T18:55:17.331Z,101285.47
2023-04-02T19:00:31.842Z,101297.16
2023-04-02T19:05:46.921Z,101302.72
2023-04-02T19:10:59.224Z,101308.16
2023-04-02T19:16:29.799Z,101324.91
2023-04-02T19:21:41.004Z,101329.59
2023-04-02T19:26:54.012Z,101326.16
2023-04-02T19:32:15.022Z,101326.41
2023-04-02T19:37:25.037Z,101345.88
2023-04-02T19:42:49.496Z,101343.63
2023-04-02T19:47:54.782Z,101348.66
2023-04-02T19:53:01.623Z,101360.38
2023-04-02T19:58:18.828Z,101362.41
2023-04-02T20:03:26.981Z,101364.31
2023-04-02T20:08:31.091Z,101377.38
2023-04-02T20:13:40.392Z,101371.59
2023-04-02T20:18:45.168Z,101388.50
2023-04-02T20:23:51.508Z,101393.88
2023-04-02T20:28:55.134Z,101398.78
2023-04-02T20:34:02.694Z,101412.69
2023-04-02T20:39:08.014Z,101422.50
2023-04-02T20:44:11.397Z,101415.91
2023-04-02T20:49:17.131Z,101431.97
2023-04-02T20:54:20.515Z,101432.75
2023-04-02T20:59:23.646Z,101440.84
2023-04-02T21:04:28.952Z,101435.88
2023-04-02T21:09:32.173Z,101459.63
2023-04-02T21:14:38.529Z,101458.16
2023-04-02T21:19:43.599Z,101460.16
2023-04-02T21:24:46.818Z,101474.19
2023-04-02T21:29:49.949Z,101485.72
2023-04-02T21:34:56.003Z,101480.69
2023-04-02T21:39:59.509Z,101476.88
2023-04-02T21:45:02.939Z,101488.53
2023-04-02T21:50:09.798Z,101490.84
2023-04-02T21:55:13.111Z,101491.91
2023-04-02T22:00:17.042Z,101500.97
2023-04-02T22:05:21.923Z,101497.66
2023-04-02T22:10:25.220Z,101507.47
2023-04-02T22:15:28.618Z,101506.41
2023-04-02T22:20:33.349Z,101514.28
2023-04-02T22:25:36.621Z,101519.88
2023-04-02T22:30:39.885Z,101518.44
2023-04-02T22:35:44.852Z,101530.13
2023-04-02T22:40:48.655Z,101524.94
2023-04-02T22:45:52.010Z,101531.28
2023-04-02T22:50:56.727Z,101537.66
2023-04-02T22:56:03.664Z,101530.88
2023-04-02T23:01:08.745Z,101546.56
2023-04-02T23:06:16.272Z,101543.56
2023-04-02T23:11:22.076Z,101559.38
2023-04-02T23:16:27.853Z,101556.31
2023-04-02T23:21:32.609Z,101560.06
2023-04-02T23:26:35.878Z,101567.28
2023-04-02T23:31:39.238Z,101565.84
2023-04-02T23:36:43.868Z,101571.94
2023-04-02T23:41:48.630Z,101573.97
2023-04-02T23:46:52.461Z,101565.50
2023-04-02T23:51:57.239Z,101575.03
2023-04-02T23:57:00.627Z,101577.81
